sensor_id;sensor_type;location;lat;lon;timestamp;temperature;humidity
5218;DHT22;26539;51.064;6.346;2022-07-10T00:00:25;16.00;99.90
5218;DHT22;26539;51.064;6.346;2022-07-10T00:02:50;16.00;99.90
5218;DHT22;26539;51.064;6.346;2022-07-10T00:05:17;16.00;99.90
5218;DHT22;26539;51.064;6.346;2022-07-10T00:07:44;15.90;99.90
5218;DHT22;26539;51.064;6.346;2022-07-10T00:10:09;15.90;99.90
5218;DHT22;26539;51.064;6.346;2022-07-10T00:12:35;15.90;99.90
5218;DHT22;26539;51.064;6.346;2022-07-10T00:15:02;15.90;99.90
5218;DHT22;26539;51.064;6.346;2022-07-10T00:17:28;15.80;99.90
5218;DHT22;26539;51.064;6.346;2022-07-10T00:19:54;15.80;99.90
5218;DHT22;26539;51.064;6.346;2022-07-10T00:22:19;15.70;1.00
5218;DHT22;26539;51.064;6.346;2022-07-10T00:24:45;15.70;1.00
5218;DHT22;26539;51.064;6.346;2022-07-10T00:27:11;15.70;1.00
5218;DHT22;26539;51.064;6.346;2022-07-10T00:29:37;15.70;1.00
5218;DHT22;26539;51.064;6.346;2022-07-10T00:32:03;15.60;1.00
5218;DHT22;26539;51.064;6.346;2022-07-10T00:34:28;15.60;1.00
5218;DHT22;26539;51.064;6.346;2022-07-10T00:36:54;15.60;1.00
5218;DHT22;26539;51.064;6.346;2022-07-10T00:39:20;15.60;1.00
5218;DHT22;26539;51.064;6.346;2022-07-10T00:41:45;15.70;1.00
5218;DHT22;26539;51.064;6.346;2022-07-10T00:44:11;15.80;1.00
5218;DHT22;26539;51.064;6.346;2022-07-10T00:46:36;15.80;1.00
5218;DHT22;26539;51.064;6.346;2022-07-10T00:49:02;15.80;1.00
5218;DHT22;26539;51.064;6.346;2022-07-10T00:51:29;15.90;1.00
5218;DHT22;26539;51.064;6.346;2022-07-10T00:53:56;16.00;1.00
5218;DHT22;26539;51.064;6.346;2022-07-10T00:56:26;16.00;1.00
5218;DHT22;26539;51.064;6.346;2022-07-10T00:58:52;16.00;1.00
5218;DHT22;26539;51.064;6.346;2022-07-10T01:01:18;16.10;1.00
5218;DHT22;26539;51.064;6.346;2022-07-10T01:03:45;16.10;1.00
5218;DHT22;26539;51.064;6.346;2022-07-10T01:06:11;16.10;1.00
5218;DHT22;26539;51.064;6.346;2022-07-10T01:08:37;16.10;1.00
5218;DHT22;26539;51.064;6.346;2022-07-10T01:11:03;16.10;1.00
5218;DHT22;26539;51.064;6.346;2022-07-10T01:13:29;16.10;1.00
5218;DHT22;26539;51.064;6.346;2022-07-10T01:15:55;16.10;1.00
5218;DHT22;26539;51.064;6.346;2022-07-10T01:18:21;16.10;1.00
5218;DHT22;26539;51.064;6.346;2022-07-10T01:20:56;16.10;1.00
5218;DHT22;26539;51.064;6.346;2022-07-10T01:23:22;16.10;1.00
5218;DHT22;26539;51.064;6.346;2022-07-10T01:25:49;16.10;1.00
5218;DHT22;26539;51.064;6.346;2022-07-10T01:28:19;16.10;1.00
5218;DHT22;26539;51.064;6.346;2022-07-10T01:30:46;16.10;1.00
5218;DHT22;26539;51.064;6.346;2022-07-10T01:33:11;16.00;1.00
5218;DHT22;26539;51.064;6.346;2022-07-10T01:35:37;16.00;1.00
5218;DHT22;26539;51.064;6.346;2022-07-10T01:38:02;16.10;1.00
5218;DHT22;26539;51.064;6.346;2022-07-10T01:40:28;16.10;1.00
5218;DHT22;26539;51.064;6.346;2022-07-10T01:42:54;16.10;1.00
5218;DHT22;26539;51.064;6.346;2022-07-10T01:45:19;16.10;1.00
5218;DHT22;26539;51.064;6.346;2022-07-10T01:47:45;16.10;1.00
5218;DHT22;26539;51.064;6.346;2022-07-10T01:50:11;16.10;1.00
5218;DHT22;26539;51.064;6.346;2022-07-10T01:52:37;16.10;1.00
5218;DHT22;26539;51.064;6.346;2022-07-10T01:55:03;16.10;1.00
5218;DHT22;26539;51.064;6.346;2022-07-10T01:57:29;16.10;1.00
5218;DHT22;26539;51.064;6.346;2022-07-10T01:59:55;16.10;1.00
5218;DHT22;26539;51.064;6.346;2022-07-10T02:02:20;16.10;1.00
5218;DHT22;26539;51.064;6.346;2022-07-10T02:04:47;16.10;1.00
5218;DHT22;26539;51.064;6.346;2022-07-10T02:07:14;16.10;1.00
5218;DHT22;26539;51.064;6.346;2022-07-10T02:09:40;16.10;1.00
5218;DHT22;26539;51.064;6.346;2022-07-10T02:12:11;16.10;1.00
5218;DHT22;26539;51.064;6.346;2022-07-10T02:14:38;16.00;1.00
5218;DHT22;26539;51.064;6.346;2022-07-10T02:17:04;16.00;1.00
5218;DHT22;26539;51.064;6.346;2022-07-10T02:19:30;16.00;1.00
5218;DHT22;26539;51.064;6.346;2022-07-10T02:21:56;15.90;1.00
5218;DHT22;26539;51.064;6.346;2022-07-10T02:24:22;15.90;1.00
5218;DHT22;26539;51.064;6.346;2022-07-10T02:26:48;15.90;1.00
5218;DHT22;26539;51.064;6.346;2022-07-10T02:29:14;15.90;1.00
5218;DHT22;26539;51.064;6.346;2022-07-10T02:31:39;15.90;1.00
5218;DHT22;26539;51.064;6.346;2022-07-10T02:34:08;15.90;1.00
5218;DHT22;26539;51.064;6.346;2022-07-10T02:36:34;15.90;1.00
5218;DHT22;26539;51.064;6.346;2022-07-10T02:39:00;15.80;1.00
5218;DHT22;26539;51.064;6.346;2022-07-10T02:41:26;15.80;1.00
5218;DHT22;26539;51.064;6.346;2022-07-10T02:43:52;15.70;1.00
5218;DHT22;26539;51.064;6.346;2022-07-10T02:46:17;15.70;1.00
5218;DHT22;26539;51.064;6.346;2022-07-10T02:48:43;15.60;1.00
5218;DHT22;26539;51.064;6.346;2022-07-10T02:51:08;15.60;1.00
5218;DHT22;26539;51.064;6.346;2022-07-10T02:53:34;15.60;1.00
5218;DHT22;26539;51.064;6.346;2022-07-10T02:55:59;15.50;1.00
5218;DHT22;26539;51.064;6.346;2022-07-10T02:58:25;15.40;1.00
5218;DHT22;26539;51.064;6.346;2022-07-10T03:00:51;15.40;1.00
5218;DHT22;26539;51.064;6.346;2022-07-10T03:03:17;15.40;34.90
5218;DHT22;26539;51.064;6.346;2022-07-10T03:05:46;15.40;57.90
5218;DHT22;26539;51.064;6.346;2022-07-10T03:08:12;15.40;99.90
5218;DHT22;26539;51.064;6.346;2022-07-10T03:10:38;15.30;99.90
5218;DHT22;26539;51.064;6.346;2022-07-10T03:13:03;15.30;99.90
5218;DHT22;26539;51.064;6.346;2022-07-10T03:15:29;15.30;99.90
5218;DHT22;26539;51.064;6.346;2022-07-10T03:17:54;15.40;99.90
5218;DHT22;26539;51.064;6.346;2022-07-10T03:20:20;15.40;99.90
5218;DHT22;26539;51.064;6.346;2022-07-10T03:22:46;15.30;99.90
5218;DHT22;26539;51.064;6.346;2022-07-10T03:25:11;15.40;99.90
5218;DHT22;26539;51.064;6.346;2022-07-10T03:27:37;15.40;99.90
5218;DHT22;26539;51.064;6.346;2022-07-10T03:30:03;15.40;99.90
5218;DHT22;26539;51.064;6.346;2022-07-10T03:32:29;15.40;99.90
5218;DHT22;26539;51.064;6.346;2022-07-10T03:34:54;15.40;99.90
5218;DHT22;26539;51.064;6.346;2022-07-10T03:37:20;15.40;99.90
5218;DHT22;26539;51.064;6.346;2022-07-10T03:39:46;15.40;99.90
5218;DHT22;26539;51.064;6.346;2022-07-10T03:42:11;15.40;99.90
5218;DHT22;26539;51.064;6.346;2022-07-10T03:44:37;15.40;99.90
5218;DHT22;26539;51.064;6.346;2022-07-10T03:47:02;15.40;99.90
5218;DHT22;26539;51.064;6.346;2022-07-10T03:49:28;15.40;99.90
5218;DHT22;26539;51.064;6.346;2022-07-10T03:51:54;15.40;99.90
5218;DHT22;26539;51.064;6.346;2022-07-10T03:54:19;15.50;99.90
5218;DHT22;26539;51.064;6.346;2022-07-10T03:56:46;15.50;99.90
5218;DHT22;26539;51.064;6.346;2022-07-10T03:59:30;15.60;99.90
5218;DHT22;26539;51.064;6.346;2022-07-10T04:01:56;15.60;99.90
5218;DHT22;26539;51.064;6.346;2022-07-10T04:04:21;15.70;99.90
5218;DHT22;26539;51.064;6.346;2022-07-10T04:06:47;15.70;99.90
5218;DHT22;26539;51.064;6.346;2022-07-10T04:09:12;15.70;99.90
5218;DHT22;26539;51.064;6.346;2022-07-10T04:11:38;15.80;99.90
5218;DHT22;26539;51.064;6.346;2022-07-10T04:14:04;15.80;99.90
5218;DHT22;26539;51.064;6.346;2022-07-10T04:16:29;15.80;99.90
5218;DHT22;26539;51.064;6.346;2022-07-10T04:18:55;15.90;99.90
5218;DHT22;26539;51.064;6.346;2022-07-10T04:21:20;16.00;94.60
5218;DHT22;26539;51.064;6.346;2022-07-10T04:23:46;16.10;42.10
5218;DHT22;26539;51.064;6.346;2022-07-10T04:26:11;16.10;14.20
5218;DHT22;26539;51.064;6.346;2022-07-10T04:28:37;16.10;1.00
5218;DHT22;26539;51.064;6.346;2022-07-10T04:31:02;16.10;1.00
5218;DHT22;26539;51.064;6.346;2022-07-10T04:33:28;16.00;1.00
5218;DHT22;26539;51.064;6.346;2022-07-10T04:35:53;16.10;1.00
5218;DHT22;26539;51.064;6.346;2022-07-10T04:38:19;16.10;1.00
5218;DHT22;26539;51.064;6.346;2022-07-10T04:40:44;16.10;1.00
5218;DHT22;26539;51.064;6.346;2022-07-10T04:43:10;16.20;1.00
5218;DHT22;26539;51.064;6.346;2022-07-10T04:45:36;16.20;1.00
5218;DHT22;26539;51.064;6.346;2022-07-10T04:48:04;16.20;1.00
5218;DHT22;26539;51.064;6.346;2022-07-10T04:50:30;16.10;1.00
5218;DHT22;26539;51.064;6.346;2022-07-10T04:52:56;16.10;1.00
5218;DHT22;26539;51.064;6.346;2022-07-10T04:55:22;16.20;1.00
5218;DHT22;26539;51.064;6.346;2022-07-10T04:57:47;16.30;1.00
5218;DHT22;26539;51.064;6.346;2022-07-10T05:00:13;16.40;1.00
5218;DHT22;26539;51.064;6.346;2022-07-10T05:02:39;16.40;1.00
5218;DHT22;26539;51.064;6.346;2022-07-10T05:05:05;16.40;1.00
5218;DHT22;26539;51.064;6.346;2022-07-10T05:07:31;16.40;1.00
5218;DHT22;26539;51.064;6.346;2022-07-10T05:09:56;16.50;1.00
5218;DHT22;26539;51.064;6.346;2022-07-10T05:12:22;16.50;1.00
5218;DHT22;26539;51.064;6.346;2022-07-10T05:14:48;16.70;1.00
5218;DHT22;26539;51.064;6.346;2022-07-10T05:17:13;16.60;1.00
5218;DHT22;26539;51.064;6.346;2022-07-10T05:19:39;16.60;1.00
5218;DHT22;26539;51.064;6.346;2022-07-10T05:22:04;16.60;1.00
5218;DHT22;26539;51.064;6.346;2022-07-10T05:24:30;16.60;1.00
5218;DHT22;26539;51.064;6.346;2022-07-10T05:26:55;16.50;1.00
5218;DHT22;26539;51.064;6.346;2022-07-10T05:29:21;16.50;1.00
5218;DHT22;26539;51.064;6.346;2022-07-10T05:31:46;16.60;1.00
5218;DHT22;26539;51.064;6.346;2022-07-10T05:34:12;16.70;1.00
5218;DHT22;26539;51.064;6.346;2022-07-10T05:36:37;16.80;1.00
5218;DHT22;26539;51.064;6.346;2022-07-10T05:39:03;16.90;1.00
5218;DHT22;26539;51.064;6.346;2022-07-10T05:41:28;17.00;1.00
5218;DHT22;26539;51.064;6.346;2022-07-10T05:43:54;17.10;1.00
5218;DHT22;26539;51.064;6.346;2022-07-10T05:46:20;17.20;1.00
5218;DHT22;26539;51.064;6.346;2022-07-10T05:48:46;17.20;1.00
5218;DHT22;26539;51.064;6.346;2022-07-10T05:51:11;17.40;1.00
5218;DHT22;26539;51.064;6.346;2022-07-10T05:53:37;17.50;1.00
5218;DHT22;26539;51.064;6.346;2022-07-10T05:56:03;17.60;1.00
5218;DHT22;26539;51.064;6.346;2022-07-10T05:58:29;17.80;99.90
5218;DHT22;26539;51.064;6.346;2022-07-10T06:00:55;18.00;99.90
5218;DHT22;26539;51.064;6.346;2022-07-10T06:03:20;18.10;99.90
5218;DHT22;26539;51.064;6.346;2022-07-10T06:05:47;18.10;99.90
5218;DHT22;26539;51.064;6.346;2022-07-10T06:08:12;18.20;99.90
5218;DHT22;26539;51.064;6.346;2022-07-10T06:10:39;18.40;99.90
5218;DHT22;26539;51.064;6.346;2022-07-10T06:13:06;18.60;99.90
5218;DHT22;26539;51.064;6.346;2022-07-10T06:15:31;18.90;99.90
5218;DHT22;26539;51.064;6.346;2022-07-10T06:17:57;19.10;99.90
5218;DHT22;26539;51.064;6.346;2022-07-10T06:20:24;19.30;99.90
5218;DHT22;26539;51.064;6.346;2022-07-10T06:22:50;19.30;99.90
5218;DHT22;26539;51.064;6.346;2022-07-10T06:25:15;19.30;99.90
5218;DHT22;26539;51.064;6.346;2022-07-10T06:27:41;19.20;99.90
5218;DHT22;26539;51.064;6.346;2022-07-10T06:30:07;19.20;99.90
5218;DHT22;26539;51.064;6.346;2022-07-10T06:32:32;19.20;99.90
5218;DHT22;26539;51.064;6.346;2022-07-10T06:34:58;19.30;99.90
5218;DHT22;26539;51.064;6.346;2022-07-10T06:37:24;19.40;99.90
5218;DHT22;26539;51.064;6.346;2022-07-10T06:39:50;19.60;99.90
5218;DHT22;26539;51.064;6.346;2022-07-10T06:42:16;19.60;99.90
5218;DHT22;26539;51.064;6.346;2022-07-10T06:44:45;19.60;99.90
5218;DHT22;26539;51.064;6.346;2022-07-10T06:47:12;19.60;99.90
5218;DHT22;26539;51.064;6.346;2022-07-10T06:49:57;19.50;99.90
5218;DHT22;26539;51.064;6.346;2022-07-10T06:52:23;19.40;99.90
5218;DHT22;26539;51.064;6.346;2022-07-10T06:54:49;19.30;99.90
5218;DHT22;26539;51.064;6.346;2022-07-10T06:57:14;19.20;99.90
5218;DHT22;26539;51.064;6.346;2022-07-10T06:59:40;19.00;99.90
5218;DHT22;26539;51.064;6.346;2022-07-10T07:02:06;18.90;99.90
5218;DHT22;26539;51.064;6.346;2022-07-10T07:04:31;18.90;99.90
5218;DHT22;26539;51.064;6.346;2022-07-10T07:06:57;18.90;99.90
5218;DHT22;26539;51.064;6.346;2022-07-10T07:09:23;18.90;99.90
5218;DHT22;26539;51.064;6.346;2022-07-10T07:11:48;18.90;99.90
5218;DHT22;26539;51.064;6.346;2022-07-10T07:14:14;19.10;99.90
5218;DHT22;26539;51.064;6.346;2022-07-10T07:16:39;19.10;99.90
5218;DHT22;26539;51.064;6.346;2022-07-10T07:19:09;19.20;99.90
5218;DHT22;26539;51.064;6.346;2022-07-10T07:21:37;19.30;99.90
5218;DHT22;26539;51.064;6.346;2022-07-10T07:24:21;19.20;99.90
5218;DHT22;26539;51.064;6.346;2022-07-10T07:26:47;19.30;99.90
5218;DHT22;26539;51.064;6.346;2022-07-10T07:29:13;19.30;99.90
5218;DHT22;26539;51.064;6.346;2022-07-10T07:31:39;19.40;99.90
5218;DHT22;26539;51.064;6.346;2022-07-10T07:34:05;19.50;99.90
5218;DHT22;26539;51.064;6.346;2022-07-10T07:36:31;19.60;99.90
5218;DHT22;26539;51.064;6.346;2022-07-10T07:38:56;19.80;99.90
5218;DHT22;26539;51.064;6.346;2022-07-10T07:41:22;19.80;99.90
5218;DHT22;26539;51.064;6.346;2022-07-10T07:43:48;19.90;99.90
5218;DHT22;26539;51.064;6.346;2022-07-10T07:46:14;20.10;99.90
5218;DHT22;26539;51.064;6.346;2022-07-10T07:48:40;20.10;99.90
5218;DHT22;26539;51.064;6.346;2022-07-10T07:51:06;20.30;99.90
5218;DHT22;26539;51.064;6.346;2022-07-10T07:53:32;20.50;99.90
5218;DHT22;26539;51.064;6.346;2022-07-10T07:55:57;20.80;99.90
5218;DHT22;26539;51.064;6.346;2022-07-10T07:58:23;21.20;99.90
5218;DHT22;26539;51.064;6.346;2022-07-10T08:00:49;21.60;99.90
5218;DHT22;26539;51.064;6.346;2022-07-10T08:03:15;22.40;99.90
5218;DHT22;26539;51.064;6.346;2022-07-10T08:05:41;23.40;99.90
5218;DHT22;26539;51.064;6.346;2022-07-10T08:08:06;24.60;99.90
5218;DHT22;26539;51.064;6.346;2022-07-10T08:10:34;25.10;99.90
5218;DHT22;26539;51.064;6.346;2022-07-10T08:13:00;27.10;99.90
5218;DHT22;26539;51.064;6.346;2022-07-10T08:15:25;27.50;99.90
5218;DHT22;26539;51.064;6.346;2022-07-10T08:17:53;27.40;99.90
5218;DHT22;26539;51.064;6.346;2022-07-10T08:20:19;27.00;99.90
5218;DHT22;26539;51.064;6.346;2022-07-10T08:22:45;26.50;99.90
5218;DHT22;26539;51.064;6.346;2022-07-10T08:25:11;26.20;99.90
5218;DHT22;26539;51.064;6.346;2022-07-10T08:27:37;26.00;99.90
5218;DHT22;26539;51.064;6.346;2022-07-10T08:30:04;25.60;99.90
5218;DHT22;26539;51.064;6.346;2022-07-10T08:32:30;25.20;99.90
5218;DHT22;26539;51.064;6.346;2022-07-10T08:34:57;24.70;99.90
5218;DHT22;26539;51.064;6.346;2022-07-10T08:37:24;24.30;99.90
5218;DHT22;26539;51.064;6.346;2022-07-10T08:39:52;24.20;99.90
5218;DHT22;26539;51.064;6.346;2022-07-10T08:42:18;24.40;99.90
5218;DHT22;26539;51.064;6.346;2022-07-10T08:44:45;24.50;99.90
5218;DHT22;26539;51.064;6.346;2022-07-10T08:47:12;24.20;99.90
5218;DHT22;26539;51.064;6.346;2022-07-10T08:49:46;24.00;99.90
5218;DHT22;26539;51.064;6.346;2022-07-10T08:54:50;23.40;99.90
5218;DHT22;26539;51.064;6.346;2022-07-10T08:57:17;23.20;99.90
5218;DHT22;26539;51.064;6.346;2022-07-10T08:59:43;22.90;99.90
5218;DHT22;26539;51.064;6.346;2022-07-10T09:02:09;22.60;99.90
5218;DHT22;26539;51.064;6.346;2022-07-10T09:04:35;22.20;99.90
5218;DHT22;26539;51.064;6.346;2022-07-10T09:07:00;21.80;99.90
5218;DHT22;26539;51.064;6.346;2022-07-10T09:09:26;21.50;99.90
5218;DHT22;26539;51.064;6.346;2022-07-10T09:11:56;21.20;99.90
5218;DHT22;26539;51.064;6.346;2022-07-10T09:14:23;20.90;99.90
5218;DHT22;26539;51.064;6.346;2022-07-10T09:16:51;20.80;99.90
5218;DHT22;26539;51.064;6.346;2022-07-10T09:19:24;20.70;99.90
5218;DHT22;26539;51.064;6.346;2022-07-10T09:22:02;20.70;99.90
5218;DHT22;26539;51.064;6.346;2022-07-10T09:24:35;20.70;99.90
5218;DHT22;26539;51.064;6.346;2022-07-10T09:27:01;20.70;99.90
5218;DHT22;26539;51.064;6.346;2022-07-10T09:29:31;20.80;99.90
5218;DHT22;26539;51.064;6.346;2022-07-10T09:32:01;20.90;99.90
5218;DHT22;26539;51.064;6.346;2022-07-10T09:34:37;20.80;99.90
5218;DHT22;26539;51.064;6.346;2022-07-10T09:47:56;20.90;99.90
5218;DHT22;26539;51.064;6.346;2022-07-10T09:50:28;20.80;99.90
5218;DHT22;26539;51.064;6.346;2022-07-10T09:53:03;20.90;99.90
5218;DHT22;26539;51.064;6.346;2022-07-10T09:55:32;20.90;99.90
5218;DHT22;26539;51.064;6.346;2022-07-10T09:58:00;21.10;99.90
5218;DHT22;26539;51.064;6.346;2022-07-10T10:00:29;21.50;99.90
5218;DHT22;26539;51.064;6.346;2022-07-10T10:03:06;21.80;99.90
5218;DHT22;26539;51.064;6.346;2022-07-10T10:05:42;22.30;99.90
5218;DHT22;26539;51.064;6.346;2022-07-10T10:08:32;22.90;99.90
5218;DHT22;26539;51.064;6.346;2022-07-10T10:11:01;23.40;99.90
5218;DHT22;26539;51.064;6.346;2022-07-10T10:13:37;23.90;99.90
5218;DHT22;26539;51.064;6.346;2022-07-10T10:16:04;24.70;99.90
5218;DHT22;26539;51.064;6.346;2022-07-10T10:18:32;25.70;99.90
5218;DHT22;26539;51.064;6.346;2022-07-10T10:20:57;27.20;99.90
5218;DHT22;26539;51.064;6.346;2022-07-10T10:23:24;27.80;99.90
5218;DHT22;26539;51.064;6.346;2022-07-10T10:25:57;29.50;99.90
5218;DHT22;26539;51.064;6.346;2022-07-10T10:28:24;29.60;99.90
5218;DHT22;26539;51.064;6.346;2022-07-10T10:30:51;29.00;99.90
5218;DHT22;26539;51.064;6.346;2022-07-10T10:36:13;27.50;99.90
5218;DHT22;26539;51.064;6.346;2022-07-10T10:41:37;26.70;99.90
5218;DHT22;26539;51.064;6.346;2022-07-10T10:46:52;27.30;99.90
5218;DHT22;26539;51.064;6.346;2022-07-10T10:49:55;27.30;99.90
5218;DHT22;26539;51.064;6.346;2022-07-10T10:52:25;27.50;99.90
5218;DHT22;26539;51.064;6.346;2022-07-10T10:57:43;27.10;99.90
5218;DHT22;26539;51.064;6.346;2022-07-10T11:00:15;27.50;99.90
5218;DHT22;26539;51.064;6.346;2022-07-10T11:02:44;28.10;99.90
5218;DHT22;26539;51.064;6.346;2022-07-10T11:07:57;29.70;99.90
5218;DHT22;26539;51.064;6.346;2022-07-10T11:10:33;30.10;99.90
5218;DHT22;26539;51.064;6.346;2022-07-10T11:15:40;28.80;99.90
5218;DHT22;26539;51.064;6.346;2022-07-10T11:18:08;28.50;99.90
5218;DHT22;26539;51.064;6.346;2022-07-10T11:23:51;28.30;99.10
5218;DHT22;26539;51.064;6.346;2022-07-10T11:26:36;27.10;96.40
5218;DHT22;26539;51.064;6.346;2022-07-10T11:29:05;26.70;96.20
5218;DHT22;26539;51.064;6.346;2022-07-10T11:31:31;26.60;96.80
5218;DHT22;26539;51.064;6.346;2022-07-10T11:34:10;27.90;99.00
5218;DHT22;26539;51.064;6.346;2022-07-10T11:36:38;29.70;99.90
5218;DHT22;26539;51.064;6.346;2022-07-10T11:39:05;31.20;99.90
5218;DHT22;26539;51.064;6.346;2022-07-10T11:41:32;31.70;99.90
5218;DHT22;26539;51.064;6.346;2022-07-10T11:44:02;31.90;99.80
5218;DHT22;26539;51.064;6.346;2022-07-10T11:46:34;32.00;98.00
5218;DHT22;26539;51.064;6.346;2022-07-10T11:49:04;31.80;96.80
5218;DHT22;26539;51.064;6.346;2022-07-10T11:51:34;31.40;94.50
5218;DHT22;26539;51.064;6.346;2022-07-10T11:54:17;31.60;94.10
5218;DHT22;26539;51.064;6.346;2022-07-10T11:56:51;31.10;91.70
5218;DHT22;26539;51.064;6.346;2022-07-10T11:59:18;30.50;89.60
5218;DHT22;26539;51.064;6.346;2022-07-10T12:01:51;30.00;86.90
5218;DHT22;26539;51.064;6.346;2022-07-10T12:04:20;29.70;85.70
5218;DHT22;26539;51.064;6.346;2022-07-10T12:06:51;29.20;84.00
5218;DHT22;26539;51.064;6.346;2022-07-10T12:09:18;29.10;82.60
5218;DHT22;26539;51.064;6.346;2022-07-10T12:12:06;28.80;81.90
5218;DHT22;26539;51.064;6.346;2022-07-10T12:14:33;28.20;80.30
5218;DHT22;26539;51.064;6.346;2022-07-10T12:17:00;27.20;77.30
5218;DHT22;26539;51.064;6.346;2022-07-10T12:19:36;26.40;76.80
5218;DHT22;26539;51.064;6.346;2022-07-10T12:22:04;25.70;74.40
5218;DHT22;26539;51.064;6.346;2022-07-10T12:24:30;25.00;73.70
5218;DHT22;26539;51.064;6.346;2022-07-10T12:26:56;24.60;74.20
5218;DHT22;26539;51.064;6.346;2022-07-10T12:29:28;24.30;76.30
5218;DHT22;26539;51.064;6.346;2022-07-10T12:32:00;24.30;78.70
5218;DHT22;26539;51.064;6.346;2022-07-10T12:34:40;24.20;83.30
5218;DHT22;26539;51.064;6.346;2022-07-10T12:39:36;24.30;88.70
5218;DHT22;26539;51.064;6.346;2022-07-10T12:42:05;24.50;90.70
5218;DHT22;26539;51.064;6.346;2022-07-10T12:47:11;26.30;93.90
5218;DHT22;26539;51.064;6.346;2022-07-10T12:49:57;27.00;95.40
5218;DHT22;26539;51.064;6.346;2022-07-10T12:52:30;27.70;96.20
5218;DHT22;26539;51.064;6.346;2022-07-10T12:55:19;28.20;96.60
5218;DHT22;26539;51.064;6.346;2022-07-10T12:58:06;28.90;96.50
5218;DHT22;26539;51.064;6.346;2022-07-10T13:00:35;29.70;97.40
5218;DHT22;26539;51.064;6.346;2022-07-10T13:03:09;30.20;96.80
5218;DHT22;26539;51.064;6.346;2022-07-10T13:05:39;30.30;95.30
5218;DHT22;26539;51.064;6.346;2022-07-10T13:08:16;30.40;94.90
5218;DHT22;26539;51.064;6.346;2022-07-10T13:10:51;30.10;93.40
5218;DHT22;26539;51.064;6.346;2022-07-10T13:13:17;29.30;90.60
5218;DHT22;26539;51.064;6.346;2022-07-10T13:15:44;28.60;86.50
5218;DHT22;26539;51.064;6.346;2022-07-10T13:18:17;28.00;84.00
5218;DHT22;26539;51.064;6.346;2022-07-10T13:20:50;27.30;83.50
5218;DHT22;26539;51.064;6.346;2022-07-10T13:23:17;26.80;83.30
5218;DHT22;26539;51.064;6.346;2022-07-10T13:25:47;26.30;81.10
5218;DHT22;26539;51.064;6.346;2022-07-10T13:28:12;25.90;81.30
5218;DHT22;26539;51.064;6.346;2022-07-10T13:30:38;25.60;82.70
5218;DHT22;26539;51.064;6.346;2022-07-10T13:33:04;25.50;82.70
5218;DHT22;26539;51.064;6.346;2022-07-10T13:35:32;25.60;84.70
5218;DHT22;26539;51.064;6.346;2022-07-10T13:37:59;25.60;86.60
5218;DHT22;26539;51.064;6.346;2022-07-10T13:40:26;25.60;87.00
5218;DHT22;26539;51.064;6.346;2022-07-10T13:42:52;25.70;88.40
5218;DHT22;26539;51.064;6.346;2022-07-10T13:45:19;26.00;90.30
5218;DHT22;26539;51.064;6.346;2022-07-10T13:47:47;26.40;91.60
5218;DHT22;26539;51.064;6.346;2022-07-10T13:50:13;26.60;91.80
5218;DHT22;26539;51.064;6.346;2022-07-10T13:52:38;26.60;92.00
5218;DHT22;26539;51.064;6.346;2022-07-10T13:55:07;26.50;92.10
5218;DHT22;26539;51.064;6.346;2022-07-10T13:57:33;26.40;91.90
5218;DHT22;26539;51.064;6.346;2022-07-10T13:59:59;26.40;91.80
5218;DHT22;26539;51.064;6.346;2022-07-10T14:02:24;26.40;92.00
5218;DHT22;26539;51.064;6.346;2022-07-10T14:04:51;26.60;92.70
5218;DHT22;26539;51.064;6.346;2022-07-10T14:07:17;26.80;93.90
5218;DHT22;26539;51.064;6.346;2022-07-10T14:09:42;27.00;93.80
5218;DHT22;26539;51.064;6.346;2022-07-10T14:12:08;27.10;93.60
5218;DHT22;26539;51.064;6.346;2022-07-10T14:14:34;27.20;94.20
5218;DHT22;26539;51.064;6.346;2022-07-10T14:16:59;27.30;93.80
5218;DHT22;26539;51.064;6.346;2022-07-10T14:19:25;27.30;93.30
5218;DHT22;26539;51.064;6.346;2022-07-10T14:21:50;27.30;99.90
5218;DHT22;26539;51.064;6.346;2022-07-10T14:24:16;27.40;93.10
5218;DHT22;26539;51.064;6.346;2022-07-10T14:26:41;27.30;93.40
5218;DHT22;26539;51.064;6.346;2022-07-10T14:29:07;27.10;92.70
5218;DHT22;26539;51.064;6.346;2022-07-10T14:31:33;26.70;91.30
5218;DHT22;26539;51.064;6.346;2022-07-10T14:33:58;26.50;91.60
5218;DHT22;26539;51.064;6.346;2022-07-10T14:36:24;26.30;90.90
5218;DHT22;26539;51.064;6.346;2022-07-10T14:38:55;26.30;91.60
5218;DHT22;26539;51.064;6.346;2022-07-10T14:41:24;26.50;99.90
5218;DHT22;26539;51.064;6.346;2022-07-10T14:43:51;26.70;93.50
5218;DHT22;26539;51.064;6.346;2022-07-10T14:46:17;27.00;94.10
5218;DHT22;26539;51.064;6.346;2022-07-10T14:48:42;27.30;94.90
5218;DHT22;26539;51.064;6.346;2022-07-10T14:51:08;27.40;95.30
5218;DHT22;26539;51.064;6.346;2022-07-10T14:53:35;27.50;94.80
5218;DHT22;26539;51.064;6.346;2022-07-10T14:56:02;27.60;95.00
5218;DHT22;26539;51.064;6.346;2022-07-10T14:58:33;27.60;94.80
5218;DHT22;26539;51.064;6.346;2022-07-10T15:00:59;27.50;94.30
5218;DHT22;26539;51.064;6.346;2022-07-10T15:03:26;27.40;93.80
5218;DHT22;26539;51.064;6.346;2022-07-10T15:05:52;27.50;93.70
5218;DHT22;26539;51.064;6.346;2022-07-10T15:08:25;27.60;94.50
5218;DHT22;26539;51.064;6.346;2022-07-10T15:10:51;27.80;94.70
5218;DHT22;26539;51.064;6.346;2022-07-10T15:13:17;27.90;95.40
5218;DHT22;26539;51.064;6.346;2022-07-10T15:15:43;28.00;94.90
5218;DHT22;26539;51.064;6.346;2022-07-10T15:18:08;28.10;95.20
5218;DHT22;26539;51.064;6.346;2022-07-10T15:20:34;28.20;95.40
5218;DHT22;26539;51.064;6.346;2022-07-10T15:23:00;28.10;94.30
5218;DHT22;26539;51.064;6.346;2022-07-10T15:25:26;28.10;94.40
5218;DHT22;26539;51.064;6.346;2022-07-10T15:27:52;28.00;94.20
5218;DHT22;26539;51.064;6.346;2022-07-10T15:30:18;27.60;93.10
5218;DHT22;26539;51.064;6.346;2022-07-10T15:32:44;27.00;91.40
5218;DHT22;26539;51.064;6.346;2022-07-10T15:35:11;26.50;91.30
5218;DHT22;26539;51.064;6.346;2022-07-10T15:37:37;26.40;91.30
5218;DHT22;26539;51.064;6.346;2022-07-10T15:40:03;26.40;92.30
5218;DHT22;26539;51.064;6.346;2022-07-10T15:42:28;26.30;92.00
5218;DHT22;26539;51.064;6.346;2022-07-10T15:44:54;26.20;92.30
5218;DHT22;26539;51.064;6.346;2022-07-10T15:47:19;25.90;99.10
5218;DHT22;26539;51.064;6.346;2022-07-10T15:49:45;25.60;91.00
5218;DHT22;26539;51.064;6.346;2022-07-10T15:52:10;25.40;90.80
5218;DHT22;26539;51.064;6.346;2022-07-10T15:54:36;25.20;91.00
5218;DHT22;26539;51.064;6.346;2022-07-10T15:57:02;25.10;91.40
5218;DHT22;26539;51.064;6.346;2022-07-10T15:59:28;25.00;92.60
5218;DHT22;26539;51.064;6.346;2022-07-10T16:01:55;24.80;92.40
5218;DHT22;26539;51.064;6.346;2022-07-10T16:04:21;24.80;92.50
5218;DHT22;26539;51.064;6.346;2022-07-10T16:06:47;24.90;93.90
5218;DHT22;26539;51.064;6.346;2022-07-10T16:09:14;25.10;94.50
5218;DHT22;26539;51.064;6.346;2022-07-10T16:11:40;25.20;95.40
5218;DHT22;26539;51.064;6.346;2022-07-10T16:14:06;25.30;96.00
5218;DHT22;26539;51.064;6.346;2022-07-10T16:16:32;25.20;96.40
5218;DHT22;26539;51.064;6.346;2022-07-10T16:18:58;25.20;96.20
5218;DHT22;26539;51.064;6.346;2022-07-10T16:21:23;25.30;97.00
5218;DHT22;26539;51.064;6.346;2022-07-10T16:23:49;25.30;97.00
5218;DHT22;26539;51.064;6.346;2022-07-10T16:26:16;25.40;96.90
5218;DHT22;26539;51.064;6.346;2022-07-10T16:28:42;25.40;97.50